createdAt,value
2022-08-10T00:00:53.676Z,16.02
2022-08-10T00:05:58.640Z,16.04
2022-08-10T00:11:01.954Z,15.94
2022-08-10T00:16:07.249Z,15.89
2022-08-10T00:21:13.037Z,15.87
2022-08-10T00:26:16.394Z,15.82
2022-08-10T00:31:21.757Z,15.77
2022-08-10T00:36:26.465Z,15.58
2022-08-10T00:41:35.140Z,15.55
2022-08-10T00:46:38.450Z,15.64
2022-08-10T00:51:48.750Z,15.57
2022-08-10T00:57:16.804Z,15.48
2022-08-10T01:02:15.794Z,15.20
2022-08-10T01:07:30.929Z,15.07
2022-08-10T01:12:42.497Z,15.23
2022-08-10T01:17:53.505Z,15.08
2022-08-10T01:23:38.474Z,15.15
2022-08-10T01:28:56.985Z,14.99
2022-08-10T01:34:08.837Z,15.07
2022-08-10T01:39:17.060Z,15.05
2022-08-10T01:44:29.506Z,14.92
2022-08-10T01:49:36.022Z,14.91
2022-08-10T01:54:42.690Z,14.97
2022-08-10T01:59:58.534Z,14.91
2022-08-10T02:05:11.337Z,14.82
2022-08-10T02:10:19.296Z,14.78
2022-08-10T02:15:23.997Z,14.75
2022-08-10T02:20:33.682Z,14.64
2022-08-10T02:25:41.774Z,14.55
2022-08-10T02:30:48.208Z,14.50
2022-08-10T02:35:56.189Z,14.37
2022-08-10T02:45:02.154Z,14.27
2022-08-10T02:46:35.090Z,14.20
2022-08-10T02:52:06.855Z,14.15
2022-08-10T02:57:15.450Z,14.07
2022-08-10T03:02:26.525Z,14.32
2022-08-10T03:07:45.094Z,14.29
2022-08-10T03:13:01.267Z,14.33
2022-08-10T03:18:06.525Z,14.31
2022-08-10T03:23:15.443Z,14.28
2022-08-10T03:28:20.738Z,14.26
2022-08-10T03:33:28.371Z,14.19
2022-08-10T03:38:33.197Z,14.26
2022-08-10T03:43:37.486Z,14.29
2022-08-10T03:48:49.362Z,14.34
2022-08-10T03:54:04.280Z,14.36
2022-08-10T03:59:12.048Z,14.35
2022-08-10T04:04:21.000Z,14.39
2022-08-10T04:09:53.353Z,14.32
2022-08-10T04:14:53.961Z,14.48
2022-08-10T04:20:00.509Z,14.61
2022-08-10T04:25:07.788Z,14.61
2022-08-10T04:30:12.187Z,14.65
2022-08-10T04:35:20.045Z,14.69
2022-08-10T04:40:30.260Z,14.82
2022-08-10T04:45:47.683Z,14.90
2022-08-10T04:50:54.219Z,15.14
2022-08-10T04:55:59.621Z,15.22
2022-08-10T05:01:02.986Z,15.41
2022-08-10T05:06:07.005Z,15.53
2022-08-10T05:11:11.706Z,15.49
2022-08-10T05:16:32.151Z,15.71
2022-08-10T05:22:03.058Z,16.01
2022-08-10T05:27:10.144Z,16.20
2022-08-10T05:32:14.162Z,16.14
2022-08-10T05:38:09.731Z,16.17
2022-08-10T05:42:43.649Z,16.27
2022-08-10T05:48:55.065Z,16.49
2022-08-10T05:53:59.660Z,16.83
2022-08-10T05:58:35.762Z,16.94
2022-08-10T06:03:44.673Z,19.01
2022-08-10T06:08:50.525Z,21.65
2022-08-10T06:14:16.204Z,25.33
2022-08-10T06:19:22.628Z,28.27
2022-08-10T06:24:30.131Z,29.72
2022-08-10T06:29:38.950Z,29.20
2022-08-10T06:34:47.633Z,29.94
2022-08-10T06:39:51.092Z,30.32
2022-08-10T06:45:00.213Z,32.11
2022-08-10T06:50:09.374Z,32.80
2022-08-10T06:55:16.879Z,33.86
2022-08-10T07:00:27.694Z,34.61
2022-08-10T07:05:42.969Z,34.09
2022-08-10T07:10:48.620Z,34.23
2022-08-10T07:15:59.454Z,34.44
2022-08-10T07:21:06.414Z,34.55
2022-08-10T07:26:11.648Z,33.71
2022-08-10T07:31:34.859Z,34.07
2022-08-10T07:36:45.893Z,34.34
2022-08-10T07:41:52.834Z,34.60
2022-08-10T07:47:04.289Z,34.62
2022-08-10T07:52:08.578Z,34.47
2022-08-10T07:57:31.134Z,35.12
2022-08-10T08:02:42.788Z,34.60
2022-08-10T08:07:47.754Z,35.17
2022-08-10T08:12:52.929Z,36.26
2022-08-10T08:18:00.970Z,36.17
2022-08-10T08:24:05.992Z,36.83
2022-08-10T08:28:30.430Z,36.49
2022-08-10T08:33:42.582Z,36.55
2022-08-10T08:38:48.428Z,34.74
2022-08-10T08:44:05.439Z,33.85
2022-08-10T08:50:08.019Z,29.55
2022-08-10T08:56:03.301Z,28.82
2022-08-10T09:00:43.285Z,30.29
2022-08-10T09:05:58.824Z,31.40
2022-08-10T09:11:15.189Z,30.16
2022-08-10T09:16:25.592Z,28.41
2022-08-10T09:21:43.325Z,26.71
2022-08-10T09:27:09.210Z,26.59
2022-08-10T09:36:16.854Z,26.49
2022-08-10T09:38:01.810Z,26.96
2022-08-10T09:43:25.978Z,27.93
2022-08-10T09:48:36.884Z,28.53
2022-08-10T09:53:53.801Z,29.31
2022-08-10T09:59:47.314Z,28.90
2022-08-10T10:04:41.974Z,29.19
2022-08-10T10:09:56.383Z,28.05
2022-08-10T10:15:24.277Z,27.57
2022-08-10T10:20:38.579Z,28.19
2022-08-10T10:25:50.866Z,27.12
2022-08-10T10:35:55.057Z,28.01
2022-08-10T10:41:03.913Z,27.45
2022-08-10T10:46:23.303Z,27.11
2022-08-10T10:51:31.714Z,25.75
2022-08-10T10:56:51.575Z,25.17
2022-08-10T11:02:05.977Z,25.80
2022-08-10T11:07:21.821Z,25.87
2022-08-10T11:12:32.764Z,25.47
2022-08-10T11:17:44.238Z,26.99
2022-08-10T11:22:59.094Z,27.51
2022-08-10T11:28:13.086Z,28.26
2022-08-10T11:33:30.966Z,28.41
2022-08-10T11:39:11.000Z,27.61
2022-08-10T11:44:13.057Z,25.31
2022-08-10T11:49:28.424Z,26.43
2022-08-10T11:54:43.407Z,28.45
2022-08-10T11:59:59.405Z,29.11
2022-08-10T12:05:10.070Z,27.67
2022-08-10T12:10:16.483Z,26.70
2022-08-10T12:15:24.349Z,28.39
2022-08-10T12:20:32.665Z,29.35
2022-08-10T12:25:56.578Z,27.93
2022-08-10T12:31:04.736Z,27.55
2022-08-10T12:36:18.161Z,28.66
2022-08-10T12:41:44.635Z,27.43
2022-08-10T12:46:58.431Z,27.89
2022-08-10T12:52:07.667Z,28.57
2022-08-10T12:57:13.706Z,28.25
2022-08-10T13:02:22.778Z,26.85
2022-08-10T13:08:25.919Z,26.76
2022-08-10T13:12:57.974Z,26.32
2022-08-10T13:18:04.648Z,28.55
2022-08-10T13:23:15.679Z,32.31
2022-08-10T13:28:35.790Z,34.61
2022-08-10T13:34:39.448Z,31.85
2022-08-10T13:39:14.295Z,33.06
2022-08-10T13:44:30.045Z,34.27
2022-08-10T13:49:46.521Z,34.91
2022-08-10T13:54:51.214Z,34.45
2022-08-10T14:00:34.870Z,33.27
2022-08-10T14:05:27.915Z,35.06
2022-08-10T14:11:09.630Z,34.96
2022-08-10T14:16:07.358Z,31.09
2022-08-10T14:21:11.298Z,29.44
2022-08-10T14:26:19.566Z,27.40
2022-08-10T14:31:30.192Z,30.61
2022-08-10T14:36:41.784Z,33.17
2022-08-10T14:42:05.696Z,32.40
2022-08-10T14:47:51.635Z,33.12
2022-08-10T14:52:44.153Z,32.58
2022-08-10T14:58:20.096Z,30.53
2022-08-10T15:04:02.060Z,32.00
2022-08-10T15:08:47.060Z,31.91
2022-08-10T15:14:15.240Z,32.15
2022-08-10T15:20:03.294Z,31.49
2022-08-10T15:25:04.709Z,31.53
2022-08-10T15:30:10.653Z,31.00
2022-08-10T15:35:33.871Z,30.86
2022-08-10T15:40:51.353Z,29.81
2022-08-10T15:46:05.996Z,27.96
2022-08-10T15:51:22.969Z,26.63
2022-08-10T15:56:41.153Z,25.57
2022-08-10T16:02:14.759Z,25.17
2022-08-10T16:07:17.980Z,25.09
2022-08-10T16:12:29.031Z,25.09
2022-08-10T16:17:54.057Z,24.99
2022-08-10T16:23:04.047Z,24.55
2022-08-10T16:28:09.675Z,24.30
2022-08-10T16:33:52.613Z,24.26
2022-08-10T16:38:52.799Z,24.07
2022-08-10T16:44:00.401Z,24.08
2022-08-10T16:49:04.057Z,24.06
2022-08-10T16:54:11.151Z,23.93
2022-08-10T16:59:20.541Z,23.54
2022-08-10T17:04:26.777Z,23.45
2022-08-10T17:09:35.310Z,23.36
2022-08-10T17:14:40.421Z,23.06
2022-08-10T17:19:46.194Z,22.96
2022-08-10T17:24:55.761Z,22.89
2022-08-10T17:30:03.839Z,22.84
2022-08-10T17:35:13.552Z,22.68
2022-08-10T17:40:22.508Z,22.52
2022-08-10T17:45:46.223Z,22.31
2022-08-10T17:50:53.363Z,22.10
2022-08-10T17:56:01.397Z,21.89
2022-08-10T18:01:40.684Z,21.68
2022-08-10T18:06:32.575Z,21.44
2022-08-10T18:11:44.150Z,21.32
2022-08-10T18:16:54.919Z,21.17
2022-08-10T18:22:04.141Z,21.02
2022-08-10T18:27:14.774Z,20.83
2022-08-10T18:32:21.552Z,20.73
2022-08-10T18:37:28.064Z,20.54
2022-08-10T18:42:40.563Z,20.35
2022-08-10T18:47:56.107Z,20.16
2022-08-10T18:53:13.036Z,20.03
2022-08-10T18:58:44.264Z,19.63
2022-08-10T19:04:11.236Z,19.59
2022-08-10T19:09:45.865Z,19.55
2022-08-10T19:14:59.053Z,19.51
2022-08-10T19:20:12.174Z,19.32
2022-08-10T19:26:33.010Z,19.12
2022-08-10T19:30:56.799Z,18.94
2022-08-10T19:36:10.992Z,18.84
2022-08-10T19:41:21.426Z,18.75
2022-08-10T19:46:40.390Z,18.76
2022-08-10T19:51:52.714Z,18.62
2022-08-10T19:57:04.531Z,18.62
2022-08-10T20:02:12.308Z,18.59
2022-08-10T20:07:24.389Z,18.50
2022-08-10T20:12:41.067Z,18.34
2022-08-10T20:17:55.149Z,18.33
2022-08-10T20:23:08.454Z,18.17
2022-08-10T20:28:19.735Z,18.18
2022-08-10T20:33:34.084Z,18.22
2022-08-10T20:38:46.926Z,18.17
2022-08-10T20:44:01.447Z,18.05
2022-08-10T20:49:27.538Z,18.00
2022-08-10T20:54:36.483Z,17.95
2022-08-10T21:00:04.290Z,17.81
2022-08-10T21:05:24.872Z,17.71
2022-08-10T21:10:51.164Z,17.58
2022-08-10T21:16:04.496Z,17.52
2022-08-10T21:21:40.992Z,17.50
2022-08-10T21:26:56.554Z,17.47
2022-08-10T21:32:12.061Z,17.26
2022-08-10T21:37:22.765Z,17.30
2022-08-10T21:42:54.150Z,17.32
2022-08-10T21:48:30.167Z,17.13
2022-08-10T21:53:57.440Z,17.03
2022-08-10T21:59:22.324Z,17.01
2022-08-10T22:04:45.496Z,16.96
2022-08-10T22:10:12.058Z,16.97
2022-08-10T22:16:05.468Z,16.85
2022-08-10T22:21:27.106Z,16.84
2022-08-10T22:27:06.100Z,16.73
2022-08-10T22:32:38.116Z,16.75
2022-08-10T22:38:11.137Z,16.71
2022-08-10T22:43:42.943Z,16.66
2022-08-10T22:49:02.472Z,16.57
2022-08-10T22:54:34.441Z,16.56
2022-08-10T22:59:39.502Z,16.54
2022-08-10T23:04:48.295Z,16.47
2022-08-10T23:10:00.700Z,16.46
2022-08-10T23:15:26.660Z,16.51
2022-08-10T23:20:31.978Z,16.44
2022-08-10T23:25:43.752Z,16.46
2022-08-10T23:31:03.955Z,16.38
2022-08-10T23:36:33.661Z,16.40
2022-08-10T23:41:38.196Z,16.34
2022-08-10T23:46:44.458Z,16.33
2022-08-10T23:51:55.698Z,16.26
2022-08-10T23:57:01.926Z,16.30
